sensor_id;sensor_type;location;lat;lon;timestamp;P1;durP1;ratioP1;P2;durP2;ratioP2
47715;SDS011;33476;50.984;3.538;2023-07-30T00:01:15;12.13;;;1.20;;
47715;SDS011;33476;50.984;3.538;2023-07-30T00:03:40;8.63;;;1.02;;
47715;SDS011;33476;50.984;3.538;2023-07-30T00:06:05;9.57;;;1.15;;
47715;SDS011;33476;50.984;3.538;2023-07-30T00:08:31;11.85;;;1.40;;
47715;SDS011;33476;50.984;3.538;2023-07-30T00:10:56;9.73;;;1.00;;
47715;SDS011;33476;50.984;3.538;2023-07-30T00:13:23;7.20;;;1.20;;
47715;SDS011;33476;50.984;3.538;2023-07-30T00:15:48;9.85;;;1.02;;
47715;SDS011;33476;50.984;3.538;2023-07-30T00:18:14;16.02;;;1.35;;
47715;SDS011;33476;50.984;3.538;2023-07-30T00:20:40;11.80;;;1.20;;
47715;SDS011;33476;50.984;3.538;2023-07-30T00:23:05;9.32;;;1.15;;
47715;SDS011;33476;50.984;3.538;2023-07-30T00:25:30;14.02;;;1.10;;
47715;SDS011;33476;50.984;3.538;2023-07-30T00:27:56;7.35;;;1.10;;
47715;SDS011;33476;50.984;3.538;2023-07-30T00:30:21;10.60;;;0.95;;
47715;SDS011;33476;50.984;3.538;2023-07-30T00:32:46;9.55;;;1.02;;
47715;SDS011;33476;50.984;3.538;2023-07-30T00:35:12;11.15;;;1.75;;
47715;SDS011;33476;50.984;3.538;2023-07-30T00:37:37;11.68;;;1.10;;
47715;SDS011;33476;50.984;3.538;2023-07-30T00:40:03;13.85;;;1.55;;
47715;SDS011;33476;50.984;3.538;2023-07-30T00:42:29;8.20;;;0.93;;
47715;SDS011;33476;50.984;3.538;2023-07-30T00:44:54;14.60;;;1.52;;
47715;SDS011;33476;50.984;3.538;2023-07-30T00:47:20;12.55;;;1.33;;
47715;SDS011;33476;50.984;3.538;2023-07-30T00:49:47;13.82;;;1.20;;
47715;SDS011;33476;50.984;3.538;2023-07-30T00:52:13;9.77;;;0.88;;
47715;SDS011;33476;50.984;3.538;2023-07-30T00:54:41;12.55;;;1.00;;
47715;SDS011;33476;50.984;3.538;2023-07-30T00:57:06;9.75;;;1.45;;
47715;SDS011;33476;50.984;3.538;2023-07-30T00:59:32;10.63;;;1.30;;
47715;SDS011;33476;50.984;3.538;2023-07-30T01:01:58;12.25;;;1.40;;
47715;SDS011;33476;50.984;3.538;2023-07-30T01:04:24;12.70;;;1.45;;
47715;SDS011;33476;50.984;3.538;2023-07-30T01:06:50;10.40;;;1.30;;
47715;SDS011;33476;50.984;3.538;2023-07-30T01:09:15;10.77;;;1.08;;
47715;SDS011;33476;50.984;3.538;2023-07-30T01:11:41;13.15;;;1.13;;
47715;SDS011;33476;50.984;3.538;2023-07-30T01:14:07;9.98;;;1.15;;
47715;SDS011;33476;50.984;3.538;2023-07-30T01:16:34;14.70;;;1.52;;
47715;SDS011;33476;50.984;3.538;2023-07-30T01:18:59;14.73;;;1.17;;
47715;SDS011;33476;50.984;3.538;2023-07-30T01:21:29;12.75;;;1.17;;
47715;SDS011;33476;50.984;3.538;2023-07-30T01:23:56;14.23;;;1.05;;
47715;SDS011;33476;50.984;3.538;2023-07-30T01:26:24;12.50;;;1.45;;
47715;SDS011;33476;50.984;3.538;2023-07-30T01:28:56;18.75;;;1.35;;
47715;SDS011;33476;50.984;3.538;2023-07-30T01:31:25;12.52;;;1.15;;
47715;SDS011;33476;50.984;3.538;2023-07-30T01:33:52;18.02;;;1.63;;
47715;SDS011;33476;50.984;3.538;2023-07-30T01:36:20;17.83;;;1.48;;
47715;SDS011;33476;50.984;3.538;2023-07-30T01:38:47;14.52;;;1.45;;
47715;SDS011;33476;50.984;3.538;2023-07-30T01:41:16;15.85;;;1.20;;
47715;SDS011;33476;50.984;3.538;2023-07-30T01:43:41;11.57;;;1.05;;
47715;SDS011;33476;50.984;3.538;2023-07-30T01:46:06;10.38;;;1.00;;
47715;SDS011;33476;50.984;3.538;2023-07-30T01:48:32;9.82;;;1.10;;
47715;SDS011;33476;50.984;3.538;2023-07-30T01:50:57;17.27;;;1.65;;
47715;SDS011;33476;50.984;3.538;2023-07-30T01:53:23;16.52;;;1.25;;
47715;SDS011;33476;50.984;3.538;2023-07-30T01:55:48;14.80;;;1.63;;
47715;SDS011;33476;50.984;3.538;2023-07-30T01:58:13;12.13;;;1.13;;
47715;SDS011;33476;50.984;3.538;2023-07-30T02:00:39;11.93;;;1.17;;
47715;SDS011;33476;50.984;3.538;2023-07-30T02:03:05;11.90;;;1.67;;
47715;SDS011;33476;50.984;3.538;2023-07-30T02:05:30;19.10;;;1.88;;
47715;SDS011;33476;50.984;3.538;2023-07-30T02:07:56;13.20;;;1.10;;
47715;SDS011;33476;50.984;3.538;2023-07-30T02:10:21;14.23;;;0.93;;
47715;SDS011;33476;50.984;3.538;2023-07-30T02:12:46;13.52;;;1.65;;
47715;SDS011;33476;50.984;3.538;2023-07-30T02:15:12;17.85;;;2.03;;
47715;SDS011;33476;50.984;3.538;2023-07-30T02:17:37;11.93;;;1.15;;
47715;SDS011;33476;50.984;3.538;2023-07-30T02:20:02;16.52;;;1.55;;
47715;SDS011;33476;50.984;3.538;2023-07-30T02:22:28;12.43;;;2.03;;
47715;SDS011;33476;50.984;3.538;2023-07-30T02:24:53;11.45;;;1.30;;
47715;SDS011;33476;50.984;3.538;2023-07-30T02:27:22;14.40;;;1.33;;
47715;SDS011;33476;50.984;3.538;2023-07-30T02:29:47;11.05;;;1.05;;
47715;SDS011;33476;50.984;3.538;2023-07-30T02:32:13;14.60;;;1.45;;
47715;SDS011;33476;50.984;3.538;2023-07-30T02:34:38;13.20;;;1.20;;
47715;SDS011;33476;50.984;3.538;2023-07-30T02:37:03;14.52;;;1.15;;
47715;SDS011;33476;50.984;3.538;2023-07-30T02:39:29;15.75;;;1.05;;
47715;SDS011;33476;50.984;3.538;2023-07-30T02:41:54;19.25;;;1.27;;
47715;SDS011;33476;50.984;3.538;2023-07-30T02:44:19;11.45;;;1.45;;
47715;SDS011;33476;50.984;3.538;2023-07-30T02:46:45;14.18;;;1.17;;
47715;SDS011;33476;50.984;3.538;2023-07-30T02:49:10;11.90;;;1.02;;
47715;SDS011;33476;50.984;3.538;2023-07-30T02:51:35;16.80;;;1.45;;
47715;SDS011;33476;50.984;3.538;2023-07-30T02:54:03;16.20;;;1.92;;
47715;SDS011;33476;50.984;3.538;2023-07-30T02:56:30;14.05;;;1.67;;
47715;SDS011;33476;50.984;3.538;2023-07-30T02:58:56;14.90;;;1.60;;
47715;SDS011;33476;50.984;3.538;2023-07-30T03:01:23;15.48;;;1.38;;
47715;SDS011;33476;50.984;3.538;2023-07-30T03:03:48;18.23;;;1.48;;
47715;SDS011;33476;50.984;3.538;2023-07-30T03:06:14;11.52;;;1.15;;
47715;SDS011;33476;50.984;3.538;2023-07-30T03:08:41;20.30;;;1.38;;
47715;SDS011;33476;50.984;3.538;2023-07-30T03:11:07;16.48;;;1.85;;
47715;SDS011;33476;50.984;3.538;2023-07-30T03:13:32;12.57;;;1.20;;
47715;SDS011;33476;50.984;3.538;2023-07-30T03:15:57;12.68;;;1.25;;
47715;SDS011;33476;50.984;3.538;2023-07-30T03:18:23;16.27;;;1.40;;
47715;SDS011;33476;50.984;3.538;2023-07-30T03:20:48;16.70;;;1.55;;
47715;SDS011;33476;50.984;3.538;2023-07-30T03:23:13;6.80;;;1.23;;
47715;SDS011;33476;50.984;3.538;2023-07-30T03:25:39;16.67;;;1.35;;
47715;SDS011;33476;50.984;3.538;2023-07-30T03:28:04;18.38;;;2.05;;
47715;SDS011;33476;50.984;3.538;2023-07-30T03:30:30;15.23;;;1.40;;
47715;SDS011;33476;50.984;3.538;2023-07-30T03:32:55;18.77;;;1.63;;
47715;SDS011;33476;50.984;3.538;2023-07-30T03:35:20;15.25;;;1.70;;
47715;SDS011;33476;50.984;3.538;2023-07-30T03:37:46;16.48;;;1.30;;
47715;SDS011;33476;50.984;3.538;2023-07-30T03:40:11;12.93;;;1.35;;
47715;SDS011;33476;50.984;3.538;2023-07-30T03:42:36;15.93;;;1.13;;
47715;SDS011;33476;50.984;3.538;2023-07-30T03:45:02;15.35;;;1.70;;
47715;SDS011;33476;50.984;3.538;2023-07-30T03:47:27;10.95;;;1.20;;
47715;SDS011;33476;50.984;3.538;2023-07-30T03:49:53;18.67;;;1.48;;
47715;SDS011;33476;50.984;3.538;2023-07-30T03:52:18;16.52;;;1.52;;
47715;SDS011;33476;50.984;3.538;2023-07-30T03:54:43;17.80;;;1.75;;
47715;SDS011;33476;50.984;3.538;2023-07-30T03:57:08;16.30;;;1.73;;
47715;SDS011;33476;50.984;3.538;2023-07-30T03:59:34;16.42;;;1.80;;
47715;SDS011;33476;50.984;3.538;2023-07-30T04:01:59;18.40;;;2.08;;
47715;SDS011;33476;50.984;3.538;2023-07-30T04:04:25;15.32;;;2.08;;
47715;SDS011;33476;50.984;3.538;2023-07-30T04:06:50;19.02;;;1.95;;
47715;SDS011;33476;50.984;3.538;2023-07-30T04:09:15;15.05;;;1.92;;
47715;SDS011;33476;50.984;3.538;2023-07-30T04:11:41;15.30;;;1.85;;
47715;SDS011;33476;50.984;3.538;2023-07-30T04:14:06;18.13;;;1.58;;
47715;SDS011;33476;50.984;3.538;2023-07-30T04:16:33;10.70;;;1.13;;
47715;SDS011;33476;50.984;3.538;2023-07-30T04:18:59;12.25;;;1.35;;
47715;SDS011;33476;50.984;3.538;2023-07-30T04:21:24;23.02;;;2.00;;
47715;SDS011;33476;50.984;3.538;2023-07-30T04:23:50;15.80;;;1.92;;
47715;SDS011;33476;50.984;3.538;2023-07-30T04:26:16;15.20;;;1.63;;
47715;SDS011;33476;50.984;3.538;2023-07-30T04:28:41;20.38;;;1.92;;
47715;SDS011;33476;50.984;3.538;2023-07-30T04:31:06;14.32;;;2.00;;
47715;SDS011;33476;50.984;3.538;2023-07-30T04:33:32;15.48;;;1.58;;
47715;SDS011;33476;50.984;3.538;2023-07-30T04:35:57;15.18;;;1.85;;
47715;SDS011;33476;50.984;3.538;2023-07-30T04:38:22;16.27;;;1.83;;
47715;SDS011;33476;50.984;3.538;2023-07-30T04:40:48;20.17;;;2.00;;
47715;SDS011;33476;50.984;3.538;2023-07-30T04:43:14;10.98;;;1.23;;
47715;SDS011;33476;50.984;3.538;2023-07-30T04:45:39;20.33;;;2.45;;
47715;SDS011;33476;50.984;3.538;2023-07-30T04:48:05;14.30;;;2.30;;
47715;SDS011;33476;50.984;3.538;2023-07-30T04:50:30;23.35;;;1.80;;
47715;SDS011;33476;50.984;3.538;2023-07-30T04:52:55;22.00;;;1.83;;
47715;SDS011;33476;50.984;3.538;2023-07-30T04:55:21;15.15;;;1.65;;
47715;SDS011;33476;50.984;3.538;2023-07-30T04:57:46;13.35;;;1.38;;
47715;SDS011;33476;50.984;3.538;2023-07-30T05:00:12;17.25;;;1.80;;
47715;SDS011;33476;50.984;3.538;2023-07-30T05:02:37;16.77;;;1.95;;
47715;SDS011;33476;50.984;3.538;2023-07-30T05:05:03;16.48;;;1.88;;
47715;SDS011;33476;50.984;3.538;2023-07-30T05:07:28;14.43;;;1.35;;
47715;SDS011;33476;50.984;3.538;2023-07-30T05:09:54;18.92;;;2.47;;
47715;SDS011;33476;50.984;3.538;2023-07-30T05:12:19;14.40;;;1.70;;
47715;SDS011;33476;50.984;3.538;2023-07-30T05:14:44;20.95;;;2.05;;
47715;SDS011;33476;50.984;3.538;2023-07-30T05:17:10;19.88;;;2.08;;
47715;SDS011;33476;50.984;3.538;2023-07-30T05:19:35;14.93;;;2.08;;
47715;SDS011;33476;50.984;3.538;2023-07-30T05:22:00;15.30;;;1.85;;
47715;SDS011;33476;50.984;3.538;2023-07-30T05:24:26;14.95;;;1.85;;
47715;SDS011;33476;50.984;3.538;2023-07-30T05:26:52;17.30;;;1.60;;
47715;SDS011;33476;50.984;3.538;2023-07-30T05:29:17;20.58;;;2.22;;
47715;SDS011;33476;50.984;3.538;2023-07-30T05:31:43;15.77;;;1.92;;
47715;SDS011;33476;50.984;3.538;2023-07-30T05:34:08;15.63;;;2.05;;
47715;SDS011;33476;50.984;3.538;2023-07-30T05:36:33;16.25;;;2.13;;
47715;SDS011;33476;50.984;3.538;2023-07-30T05:38:59;20.83;;;2.10;;
47715;SDS011;33476;50.984;3.538;2023-07-30T05:41:24;15.38;;;1.65;;
47715;SDS011;33476;50.984;3.538;2023-07-30T05:43:49;14.30;;;1.63;;
47715;SDS011;33476;50.984;3.538;2023-07-30T05:46:15;14.48;;;2.05;;
47715;SDS011;33476;50.984;3.538;2023-07-30T05:48:40;21.35;;;2.00;;
47715;SDS011;33476;50.984;3.538;2023-07-30T05:51:06;17.42;;;1.65;;
47715;SDS011;33476;50.984;3.538;2023-07-30T05:53:31;16.50;;;2.00;;
47715;SDS011;33476;50.984;3.538;2023-07-30T05:55:56;19.67;;;2.10;;
47715;SDS011;33476;50.984;3.538;2023-07-30T05:58:22;17.30;;;1.70;;
47715;SDS011;33476;50.984;3.538;2023-07-30T06:00:47;18.83;;;1.60;;
47715;SDS011;33476;50.984;3.538;2023-07-30T06:03:12;18.48;;;1.50;;
47715;SDS011;33476;50.984;3.538;2023-07-30T06:05:40;15.77;;;1.63;;
47715;SDS011;33476;50.984;3.538;2023-07-30T06:08:07;15.40;;;2.08;;
47715;SDS011;33476;50.984;3.538;2023-07-30T06:10:35;17.65;;;1.95;;
47715;SDS011;33476;50.984;3.538;2023-07-30T06:13:05;17.98;;;1.33;;
47715;SDS011;33476;50.984;3.538;2023-07-30T06:15:31;18.17;;;2.28;;
47715;SDS011;33476;50.984;3.538;2023-07-30T06:17:57;15.20;;;1.42;;
47715;SDS011;33476;50.984;3.538;2023-07-30T06:20:22;16.08;;;1.77;;
47715;SDS011;33476;50.984;3.538;2023-07-30T06:22:48;17.73;;;1.85;;
47715;SDS011;33476;50.984;3.538;2023-07-30T06:25:13;20.17;;;2.08;;
47715;SDS011;33476;50.984;3.538;2023-07-30T06:27:38;12.82;;;1.30;;
47715;SDS011;33476;50.984;3.538;2023-07-30T06:30:04;19.52;;;2.38;;
47715;SDS011;33476;50.984;3.538;2023-07-30T06:32:30;16.85;;;1.98;;
47715;SDS011;33476;50.984;3.538;2023-07-30T06:34:55;17.85;;;1.98;;
47715;SDS011;33476;50.984;3.538;2023-07-30T06:37:21;16.48;;;1.60;;
47715;SDS011;33476;50.984;3.538;2023-07-30T06:39:47;13.10;;;1.60;;
47715;SDS011;33476;50.984;3.538;2023-07-30T06:42:12;12.57;;;2.20;;
47715;SDS011;33476;50.984;3.538;2023-07-30T06:44:37;15.35;;;1.95;;
47715;SDS011;33476;50.984;3.538;2023-07-30T06:47:03;15.93;;;2.22;;
47715;SDS011;33476;50.984;3.538;2023-07-30T06:49:29;12.93;;;1.58;;
47715;SDS011;33476;50.984;3.538;2023-07-30T06:51:54;14.73;;;1.55;;
47715;SDS011;33476;50.984;3.538;2023-07-30T06:54:20;17.08;;;2.17;;
47715;SDS011;33476;50.984;3.538;2023-07-30T06:56:45;12.57;;;1.77;;
47715;SDS011;33476;50.984;3.538;2023-07-30T06:59:11;16.33;;;1.77;;
47715;SDS011;33476;50.984;3.538;2023-07-30T07:01:36;15.52;;;1.67;;
47715;SDS011;33476;50.984;3.538;2023-07-30T07:04:01;12.27;;;1.35;;
47715;SDS011;33476;50.984;3.538;2023-07-30T07:06:27;12.77;;;0.98;;
47715;SDS011;33476;50.984;3.538;2023-07-30T07:08:52;14.15;;;1.83;;
47715;SDS011;33476;50.984;3.538;2023-07-30T07:11:18;16.65;;;2.00;;
47715;SDS011;33476;50.984;3.538;2023-07-30T07:13:43;19.77;;;1.63;;
47715;SDS011;33476;50.984;3.538;2023-07-30T07:16:08;16.23;;;1.52;;
47715;SDS011;33476;50.984;3.538;2023-07-30T07:18:34;16.55;;;2.13;;
47715;SDS011;33476;50.984;3.538;2023-07-30T07:20:59;13.25;;;1.58;;
47715;SDS011;33476;50.984;3.538;2023-07-30T07:23:24;12.35;;;1.33;;
47715;SDS011;33476;50.984;3.538;2023-07-30T07:25:51;15.15;;;1.40;;
47715;SDS011;33476;50.984;3.538;2023-07-30T07:28:16;10.25;;;1.15;;
47715;SDS011;33476;50.984;3.538;2023-07-30T07:30:43;10.35;;;0.77;;
47715;SDS011;33476;50.984;3.538;2023-07-30T07:33:09;13.73;;;0.93;;
47715;SDS011;33476;50.984;3.538;2023-07-30T07:35:37;16.88;;;1.70;;
47715;SDS011;33476;50.984;3.538;2023-07-30T07:38:05;18.08;;;1.60;;
47715;SDS011;33476;50.984;3.538;2023-07-30T07:40:35;16.50;;;1.88;;
47715;SDS011;33476;50.984;3.538;2023-07-30T07:43:04;10.55;;;1.50;;
47715;SDS011;33476;50.984;3.538;2023-07-30T07:45:29;14.13;;;1.42;;
47715;SDS011;33476;50.984;3.538;2023-07-30T07:47:55;9.55;;;1.20;;
47715;SDS011;33476;50.984;3.538;2023-07-30T07:50:20;11.73;;;1.42;;
47715;SDS011;33476;50.984;3.538;2023-07-30T07:52:46;12.50;;;1.83;;
47715;SDS011;33476;50.984;3.538;2023-07-30T07:55:11;10.30;;;0.90;;
47715;SDS011;33476;50.984;3.538;2023-07-30T07:57:36;7.50;;;0.98;;
47715;SDS011;33476;50.984;3.538;2023-07-30T08:00:02;7.57;;;0.85;;
47715;SDS011;33476;50.984;3.538;2023-07-30T08:02:30;6.90;;;0.50;;
47715;SDS011;33476;50.984;3.538;2023-07-30T08:04:55;9.50;;;1.02;;
47715;SDS011;33476;50.984;3.538;2023-07-30T08:07:21;7.22;;;0.60;;
47715;SDS011;33476;50.984;3.538;2023-07-30T08:09:46;7.97;;;0.52;;
47715;SDS011;33476;50.984;3.538;2023-07-30T08:12:11;8.85;;;0.50;;
47715;SDS011;33476;50.984;3.538;2023-07-30T08:14:37;6.65;;;0.68;;
47715;SDS011;33476;50.984;3.538;2023-07-30T08:17:03;9.15;;;1.00;;
47715;SDS011;33476;50.984;3.538;2023-07-30T08:19:29;7.53;;;0.70;;
47715;SDS011;33476;50.984;3.538;2023-07-30T08:21:55;7.20;;;0.90;;
47715;SDS011;33476;50.984;3.538;2023-07-30T08:24:21;7.85;;;0.75;;
47715;SDS011;33476;50.984;3.538;2023-07-30T08:26:47;8.88;;;0.75;;
47715;SDS011;33476;50.984;3.538;2023-07-30T08:29:12;6.82;;;0.73;;
47715;SDS011;33476;50.984;3.538;2023-07-30T08:31:39;10.55;;;0.57;;
47715;SDS011;33476;50.984;3.538;2023-07-30T08:34:05;6.70;;;0.45;;
47715;SDS011;33476;50.984;3.538;2023-07-30T08:36:30;8.98;;;0.47;;
47715;SDS011;33476;50.984;3.538;2023-07-30T08:38:56;8.75;;;0.82;;
47715;SDS011;33476;50.984;3.538;2023-07-30T08:41:21;4.65;;;0.30;;
47715;SDS011;33476;50.984;3.538;2023-07-30T08:43:46;8.95;;;0.85;;
47715;SDS011;33476;50.984;3.538;2023-07-30T08:46:14;6.32;;;0.47;;
47715;SDS011;33476;50.984;3.538;2023-07-30T08:48:40;9.50;;;0.50;;
47715;SDS011;33476;50.984;3.538;2023-07-30T08:51:05;5.70;;;0.40;;
47715;SDS011;33476;50.984;3.538;2023-07-30T08:53:31;5.13;;;0.43;;
47715;SDS011;33476;50.984;3.538;2023-07-30T08:55:57;6.57;;;0.63;;
47715;SDS011;33476;50.984;3.538;2023-07-30T08:58:24;7.25;;;0.47;;
47715;SDS011;33476;50.984;3.538;2023-07-30T09:00:51;5.43;;;0.28;;
47715;SDS011;33476;50.984;3.538;2023-07-30T09:03:20;4.43;;;0.50;;
47715;SDS011;33476;50.984;3.538;2023-07-30T09:05:48;4.65;;;0.38;;
47715;SDS011;33476;50.984;3.538;2023-07-30T09:08:14;9.15;;;1.42;;
47715;SDS011;33476;50.984;3.538;2023-07-30T09:10:39;3.53;;;0.45;;
47715;SDS011;33476;50.984;3.538;2023-07-30T09:13:05;5.68;;;0.82;;
47715;SDS011;33476;50.984;3.538;2023-07-30T09:15:37;5.55;;;0.65;;
47715;SDS011;33476;50.984;3.538;2023-07-30T09:18:06;4.93;;;0.30;;
47715;SDS011;33476;50.984;3.538;2023-07-30T09:20:42;9.02;;;0.98;;
47715;SDS011;33476;50.984;3.538;2023-07-30T09:23:08;3.80;;;0.40;;
47715;SDS011;33476;50.984;3.538;2023-07-30T09:25:34;11.18;;;0.77;;
47715;SDS011;33476;50.984;3.538;2023-07-30T09:28:00;10.23;;;1.20;;
47715;SDS011;33476;50.984;3.538;2023-07-30T09:30:26;8.55;;;0.95;;
47715;SDS011;33476;50.984;3.538;2023-07-30T09:32:55;8.30;;;0.60;;
47715;SDS011;33476;50.984;3.538;2023-07-30T09:35:22;5.05;;;0.70;;
47715;SDS011;33476;50.984;3.538;2023-07-30T09:37:50;6.25;;;0.65;;
47715;SDS011;33476;50.984;3.538;2023-07-30T09:40:29;9.65;;;1.20;;
47715;SDS011;33476;50.984;3.538;2023-07-30T09:42:59;6.03;;;0.80;;
47715;SDS011;33476;50.984;3.538;2023-07-30T09:45:26;4.65;;;0.73;;
47715;SDS011;33476;50.984;3.538;2023-07-30T09:47:53;11.60;;;0.80;;
47715;SDS011;33476;50.984;3.538;2023-07-30T09:50:19;4.88;;;0.40;;
47715;SDS011;33476;50.984;3.538;2023-07-30T09:52:44;10.90;;;0.73;;
47715;SDS011;33476;50.984;3.538;2023-07-30T09:55:10;7.88;;;0.70;;
47715;SDS011;33476;50.984;3.538;2023-07-30T09:57:37;3.20;;;0.40;;
47715;SDS011;33476;50.984;3.538;2023-07-30T10:00:03;5.25;;;0.50;;
47715;SDS011;33476;50.984;3.538;2023-07-30T10:02:30;4.97;;;0.52;;
47715;SDS011;33476;50.984;3.538;2023-07-30T10:05:01;4.10;;;0.47;;
47715;SDS011;33476;50.984;3.538;2023-07-30T10:07:29;3.72;;;0.30;;
47715;SDS011;33476;50.984;3.538;2023-07-30T10:09:58;3.78;;;0.30;;
47715;SDS011;33476;50.984;3.538;2023-07-30T10:12:27;7.40;;;0.35;;
47715;SDS011;33476;50.984;3.538;2023-07-30T10:14:56;3.90;;;0.47;;
47715;SDS011;33476;50.984;3.538;2023-07-30T10:17:21;2.10;;;0.50;;
47715;SDS011;33476;50.984;3.538;2023-07-30T10:19:48;7.15;;;0.40;;
47715;SDS011;33476;50.984;3.538;2023-07-30T10:24:40;3.50;;;0.40;;
47715;SDS011;33476;50.984;3.538;2023-07-30T10:27:06;4.75;;;0.30;;
47715;SDS011;33476;50.984;3.538;2023-07-30T10:29:36;3.88;;;0.20;;
47715;SDS011;33476;50.984;3.538;2023-07-30T10:32:06;4.70;;;0.40;;
47715;SDS011;33476;50.984;3.538;2023-07-30T10:34:44;3.13;;;0.43;;
47715;SDS011;33476;50.984;3.538;2023-07-30T10:37:15;7.40;;;0.50;;
47715;SDS011;33476;50.984;3.538;2023-07-30T10:39:43;6.32;;;0.50;;
47715;SDS011;33476;50.984;3.538;2023-07-30T10:42:09;4.22;;;0.40;;
47715;SDS011;33476;50.984;3.538;2023-07-30T10:44:34;3.00;;;0.30;;
47715;SDS011;33476;50.984;3.538;2023-07-30T10:47:01;5.10;;;0.68;;
47715;SDS011;33476;50.984;3.538;2023-07-30T10:49:28;4.88;;;0.30;;
47715;SDS011;33476;50.984;3.538;2023-07-30T10:51:55;6.00;;;0.70;;
47715;SDS011;33476;50.984;3.538;2023-07-30T10:54:25;4.93;;;0.32;;
47715;SDS011;33476;50.984;3.538;2023-07-30T10:56:50;6.53;;;0.60;;
47715;SDS011;33476;50.984;3.538;2023-07-30T10:59:16;6.45;;;0.38;;
47715;SDS011;33476;50.984;3.538;2023-07-30T11:01:44;5.13;;;0.40;;
47715;SDS011;33476;50.984;3.538;2023-07-30T11:04:11;5.80;;;0.60;;
47715;SDS011;33476;50.984;3.538;2023-07-30T11:06:47;2.83;;;0.30;;
47715;SDS011;33476;50.984;3.538;2023-07-30T11:09:24;3.05;;;0.30;;
47715;SDS011;33476;50.984;3.538;2023-07-30T11:11:52;4.70;;;0.65;;
47715;SDS011;33476;50.984;3.538;2023-07-30T11:14:19;4.03;;;0.43;;
47715;SDS011;33476;50.984;3.538;2023-07-30T11:16:49;1.60;;;0.30;;
47715;SDS011;33476;50.984;3.538;2023-07-30T11:19:19;7.50;;;0.55;;
47715;SDS011;33476;50.984;3.538;2023-07-30T11:21:48;3.45;;;0.40;;
47715;SDS011;33476;50.984;3.538;2023-07-30T11:24:14;8.25;;;0.50;;
47715;SDS011;33476;50.984;3.538;2023-07-30T11:26:40;3.15;;;0.30;;
47715;SDS011;33476;50.984;3.538;2023-07-30T11:29:15;2.42;;;0.20;;
47715;SDS011;33476;50.984;3.538;2023-07-30T11:31:42;9.73;;;0.20;;
47715;SDS011;33476;50.984;3.538;2023-07-30T11:34:08;16.15;;;0.73;;
47715;SDS011;33476;50.984;3.538;2023-07-30T11:36:34;3.63;;;0.38;;
47715;SDS011;33476;50.984;3.538;2023-07-30T11:38:59;4.80;;;0.30;;
47715;SDS011;33476;50.984;3.538;2023-07-30T11:41:26;4.45;;;0.20;;
47715;SDS011;33476;50.984;3.538;2023-07-30T11:43:52;4.32;;;0.20;;
47715;SDS011;33476;50.984;3.538;2023-07-30T11:46:17;2.22;;;0.22;;
47715;SDS011;33476;50.984;3.538;2023-07-30T11:48:46;4.88;;;0.38;;
47715;SDS011;33476;50.984;3.538;2023-07-30T11:56:28;3.97;;;0.30;;
47715;SDS011;33476;50.984;3.538;2023-07-30T11:59:16;5.15;;;0.63;;
47715;SDS011;33476;50.984;3.538;2023-07-30T12:01:40;4.25;;;0.20;;
47715;SDS011;33476;50.984;3.538;2023-07-30T12:04:07;2.50;;;0.20;;
47715;SDS011;33476;50.984;3.538;2023-07-30T12:09:15;4.97;;;0.20;;
47715;SDS011;33476;50.984;3.538;2023-07-30T12:11:44;4.55;;;0.40;;
47715;SDS011;33476;50.984;3.538;2023-07-30T12:14:14;3.17;;;0.43;;
47715;SDS011;33476;50.984;3.538;2023-07-30T12:16:40;9.25;;;0.50;;
47715;SDS011;33476;50.984;3.538;2023-07-30T12:19:05;4.55;;;0.30;;
47715;SDS011;33476;50.984;3.538;2023-07-30T12:21:31;6.70;;;0.50;;
47715;SDS011;33476;50.984;3.538;2023-07-30T12:23:56;3.03;;;0.50;;
47715;SDS011;33476;50.984;3.538;2023-07-30T12:26:21;3.97;;;0.40;;
47715;SDS011;33476;50.984;3.538;2023-07-30T12:28:46;4.90;;;0.50;;
47715;SDS011;33476;50.984;3.538;2023-07-30T12:31:12;3.90;;;0.47;;
47715;SDS011;33476;50.984;3.538;2023-07-30T12:33:37;4.90;;;0.50;;
47715;SDS011;33476;50.984;3.538;2023-07-30T12:36:02;2.97;;;0.43;;
47715;SDS011;33476;50.984;3.538;2023-07-30T12:38:28;6.47;;;0.90;;
47715;SDS011;33476;50.984;3.538;2023-07-30T12:40:53;5.20;;;0.60;;
47715;SDS011;33476;50.984;3.538;2023-07-30T12:43:19;4.40;;;0.52;;
47715;SDS011;33476;50.984;3.538;2023-07-30T12:45:45;3.70;;;0.30;;
47715;SDS011;33476;50.984;3.538;2023-07-30T12:48:11;3.83;;;0.80;;
47715;SDS011;33476;50.984;3.538;2023-07-30T12:50:36;3.67;;;0.47;;
47715;SDS011;33476;50.984;3.538;2023-07-30T12:53:02;3.22;;;0.60;;
47715;SDS011;33476;50.984;3.538;2023-07-30T12:55:27;4.63;;;0.45;;
47715;SDS011;33476;50.984;3.538;2023-07-30T12:57:52;4.18;;;0.80;;
47715;SDS011;33476;50.984;3.538;2023-07-30T13:00:18;8.95;;;0.75;;
47715;SDS011;33476;50.984;3.538;2023-07-30T13:02:43;6.28;;;0.60;;
47715;SDS011;33476;50.984;3.538;2023-07-30T13:05:08;6.30;;;0.50;;
47715;SDS011;33476;50.984;3.538;2023-07-30T13:07:34;3.13;;;0.40;;
47715;SDS011;33476;50.984;3.538;2023-07-30T13:10:03;4.90;;;0.47;;
47715;SDS011;33476;50.984;3.538;2023-07-30T13:12:32;12.23;;;0.82;;
47715;SDS011;33476;50.984;3.538;2023-07-30T13:14:58;6.07;;;0.88;;
47715;SDS011;33476;50.984;3.538;2023-07-30T13:17:24;9.20;;;0.77;;
47715;SDS011;33476;50.984;3.538;2023-07-30T13:19:49;4.95;;;0.70;;
47715;SDS011;33476;50.984;3.538;2023-07-30T13:22:15;5.55;;;0.93;;
47715;SDS011;33476;50.984;3.538;2023-07-30T13:24:40;5.57;;;0.98;;
47715;SDS011;33476;50.984;3.538;2023-07-30T13:27:05;6.47;;;0.75;;
47715;SDS011;33476;50.984;3.538;2023-07-30T13:29:31;5.72;;;1.05;;
47715;SDS011;33476;50.984;3.538;2023-07-30T13:31:56;4.45;;;1.02;;
47715;SDS011;33476;50.984;3.538;2023-07-30T13:34:22;7.13;;;0.90;;
47715;SDS011;33476;50.984;3.538;2023-07-30T13:36:47;5.85;;;1.00;;
47715;SDS011;33476;50.984;3.538;2023-07-30T13:39:13;6.97;;;1.08;;
47715;SDS011;33476;50.984;3.538;2023-07-30T13:41:38;6.05;;;0.77;;
47715;SDS011;33476;50.984;3.538;2023-07-30T13:44:03;9.60;;;1.15;;
47715;SDS011;33476;50.984;3.538;2023-07-30T13:46:29;7.53;;;0.75;;
47715;SDS011;33476;50.984;3.538;2023-07-30T13:48:54;9.68;;;1.02;;
47715;SDS011;33476;50.984;3.538;2023-07-30T13:51:19;4.75;;;1.10;;
47715;SDS011;33476;50.984;3.538;2023-07-30T13:53:45;10.20;;;1.50;;
47715;SDS011;33476;50.984;3.538;2023-07-30T13:56:10;8.32;;;1.23;;
47715;SDS011;33476;50.984;3.538;2023-07-30T13:58:35;7.97;;;1.10;;
47715;SDS011;33476;50.984;3.538;2023-07-30T14:01:01;10.48;;;1.30;;
47715;SDS011;33476;50.984;3.538;2023-07-30T14:03:26;8.15;;;1.17;;
47715;SDS011;33476;50.984;3.538;2023-07-30T14:05:51;6.43;;;0.90;;
47715;SDS011;33476;50.984;3.538;2023-07-30T14:08:17;4.35;;;0.80;;
47715;SDS011;33476;50.984;3.538;2023-07-30T14:10:42;8.90;;;1.10;;
47715;SDS011;33476;50.984;3.538;2023-07-30T14:13:07;6.45;;;1.00;;
47715;SDS011;33476;50.984;3.538;2023-07-30T14:15:33;6.45;;;0.93;;
47715;SDS011;33476;50.984;3.538;2023-07-30T14:17:58;9.52;;;1.10;;
47715;SDS011;33476;50.984;3.538;2023-07-30T14:20:23;9.98;;;1.15;;
47715;SDS011;33476;50.984;3.538;2023-07-30T14:22:49;7.00;;;1.40;;
47715;SDS011;33476;50.984;3.538;2023-07-30T14:25:14;6.68;;;1.30;;
47715;SDS011;33476;50.984;3.538;2023-07-30T14:27:40;5.97;;;1.00;;
47715;SDS011;33476;50.984;3.538;2023-07-30T14:30:05;7.57;;;1.00;;
47715;SDS011;33476;50.984;3.538;2023-07-30T14:32:31;5.95;;;1.08;;
47715;SDS011;33476;50.984;3.538;2023-07-30T14:34:57;6.97;;;0.82;;
47715;SDS011;33476;50.984;3.538;2023-07-30T14:37:22;7.80;;;0.88;;
47715;SDS011;33476;50.984;3.538;2023-07-30T14:39:47;5.63;;;0.90;;
47715;SDS011;33476;50.984;3.538;2023-07-30T14:42:13;4.43;;;1.15;;
47715;SDS011;33476;50.984;3.538;2023-07-30T14:44:38;9.25;;;1.52;;